Time;durP1;ratioP1;P1;durP2;ratioP2;P2;SDS_P1;SDS_P2;PMS_P1;PMS_P2;Temp;Humidity;BMP_temperature;BMP_pressure;BME280_temperature;BME280_humidity;BME280_pressure;Samples;Min_cycle;Max_cycle;Signal;HPM_P1;HPM_P2
2023/07/26 00:02:03;;;;;;;17.88;7.63;;;;;;;30.58;35.14;96310.34;10279751;28;20134;-51
2023/07/26 00:07:02;;;;;;;16.38;7.00;;;;;;;30.43;35.05;96286.03;10278238;28;20132;-51
2023/07/26 00:12:01;;;;;;;16.52;7.20;;;;;;;30.47;34.90;96290.06;10279433;28;20032;-49
2023/07/26 00:17:02;;;;;;;19.35;7.68;;;;;;;30.48;35.05;96295.25;10283972;28;20384;-51
2023/07/26 00:22:01;;;;;;;19.13;7.28;;;;;;;30.40;35.02;96291.66;10284892;28;20150;-49
2023/07/26 00:27:00;;;;;;;20.10;7.95;;;;;;;30.30;34.85;96270.38;10288600;28;20076;-50
2023/07/26 00:31:59;;;;;;;17.30;6.93;;;;;;;30.34;34.39;96275.25;10286263;28;20113;-49
2023/07/26 00:37:00;;;;;;;15.55;6.60;;;;;;;30.43;34.49;96283.34;10288766;28;20030;-52
2023/07/26 00:41:59;;;;;;;19.58;7.70;;;;;;;30.42;34.49;96287.03;10288377;28;20104;-51
2023/07/26 00:46:58;;;;;;;18.38;7.28;;;;;;;30.43;34.48;96291.38;10289671;28;20138;-51
2023/07/26 00:51:57;;;;;;;15.50;7.28;;;;;;;30.44;34.34;96285.03;10287828;28;20070;-52
2023/07/26 00:56:56;;;;;;;21.35;7.63;;;;;;;30.44;34.08;96280.50;10286761;28;20542;-50
2023/07/26 01:01:55;;;;;;;20.60;7.45;;;;;;;30.45;34.60;96271.50;10286474;28;20499;-51
2023/07/26 01:07:01;;;;;;;25.33;7.97;;;;;;;30.39;34.80;96271.25;10287376;28;20030;-48
2023/07/26 01:12:14;;;;;;;16.73;7.97;;;;;;;30.40;34.42;96259.53;10285171;28;20491;-50
2023/07/26 01:17:13;;;;;;;15.70;7.25;;;;;;;30.34;34.77;96255.69;10287583;28;20529;-50
2023/07/26 01:22:12;;;;;;;22.55;7.32;;;;;;;30.24;34.18;96237.09;10283204;28;20594;-52
2023/07/26 01:27:11;;;;;;;21.42;8.05;;;;;;;30.39;34.38;96253.34;10284815;28;20073;-51
2023/07/26 01:32:14;;;;;;;18.70;7.45;;;;;;;30.44;34.36;96256.41;10281002;28;20050;-51
2023/07/26 01:37:14;;;;;;;16.48;8.15;;;;;;;30.37;34.75;96250.00;10284412;28;20121;-52
2023/07/26 01:42:13;;;;;;;16.63;7.45;;;;;;;30.34;34.76;96247.66;10281428;28;20552;-51
2023/07/26 01:47:12;;;;;;;21.00;7.57;;;;;;;30.30;34.42;96239.13;10281747;28;20203;-50
2023/07/26 01:52:11;;;;;;;28.02;8.55;;;;;;;30.25;34.77;96236.06;10281959;28;20152;-51
2023/07/26 01:57:10;;;;;;;17.13;8.00;;;;;;;30.05;35.00;96191.88;10282415;28;20041;-52
2023/07/26 02:02:09;;;;;;;19.05;7.55;;;;;;;30.20;34.65;96227.69;10279425;28;20034;-50
2023/07/26 02:07:08;;;;;;;17.27;7.22;;;;;;;30.14;35.11;96228.38;10282615;28;20120;-52
2023/07/26 02:12:07;;;;;;;18.83;7.35;;;;;;;30.03;35.25;96213.44;10279596;28;20021;-54
2023/07/26 02:17:06;;;;;;;19.63;7.88;;;;;;;29.99;35.49;96203.22;10279121;28;20515;-48
2023/07/26 02:22:05;;;;;;;13.90;7.78;;;;;;;29.96;35.63;96211.56;10280923;28;20125;-50
2023/07/26 02:27:04;;;;;;;21.73;8.23;;;;;;;29.88;35.94;96217.69;10278899;28;20033;-51
2023/07/26 02:32:04;;;;;;;15.25;7.75;;;;;;;29.80;36.90;96226.47;10280803;28;20073;-50
2023/07/26 02:37:03;;;;;;;22.27;8.63;;;;;;;29.71;36.87;96224.75;10261360;28;20630;-51
2023/07/26 02:42:03;;;;;;;19.58;7.70;;;;;;;29.63;37.48;96222.06;10252306;28;20112;-51
2023/07/26 02:47:02;;;;;;;24.10;8.60;;;;;;;29.55;36.84;96230.00;10254406;28;20113;-51
2023/07/26 02:52:01;;;;;;;18.92;7.75;;;;;;;29.58;36.89;96222.53;10250134;28;20150;-53
2023/07/26 02:57:00;;;;;;;22.73;8.27;;;;;;;29.50;36.89;96225.97;10255626;28;20043;-53
2023/07/26 03:01:59;;;;;;;17.77;7.10;;;;;;;29.50;36.87;96230.47;10252361;28;20509;-52
2023/07/26 03:06:57;;;;;;;18.02;7.88;;;;;;;29.48;36.63;96217.28;10248088;28;20535;-52
2023/07/26 03:11:56;;;;;;;19.63;8.30;;;;;;;29.47;36.45;96236.16;10247948;28;20026;-51
2023/07/26 03:16:55;;;;;;;15.80;7.75;;;;;;;29.47;36.09;96253.00;10246386;28;20105;-51
2023/07/26 03:21:54;;;;;;;17.33;8.45;;;;;;;29.49;35.88;96256.38;10247676;28;20116;-51
2023/07/26 03:26:53;;;;;;;19.08;7.88;;;;;;;29.45;35.80;96270.19;10250670;28;20036;-51
2023/07/26 03:31:52;;;;;;;16.98;8.52;;;;;;;29.57;35.34;96273.47;10246045;28;20527;-51
2023/07/26 03:36:51;;;;;;;23.73;8.73;;;;;;;29.56;35.28;96279.81;10248074;28;20065;-51
2023/07/26 03:41:50;;;;;;;20.13;8.07;;;;;;;29.59;35.72;96287.50;10245121;28;20122;-52
2023/07/26 03:46:50;;;;;;;19.55;7.07;;;;;;;29.54;36.09;96289.81;10252075;28;20036;-50
2023/07/26 03:51:49;;;;;;;16.42;7.95;;;;;;;29.44;37.03;96296.09;10256274;28;20069;-49
2023/07/26 03:56:48;;;;;;;22.27;8.75;;;;;;;29.31;36.91;96308.16;10256787;28;20041;-51
2023/07/26 04:01:47;;;;;;;22.23;7.80;;;;;;;29.22;37.97;96305.38;10259174;28;20034;-52
2023/07/26 04:06:46;;;;;;;16.02;8.30;;;;;;;29.20;37.45;96310.03;10263244;28;20129;-51
2023/07/26 04:11:45;;;;;;;17.70;8.23;;;;;;;29.18;37.88;96311.19;10255165;28;20150;-51
2023/07/26 04:16:44;;;;;;;21.70;8.20;;;;;;;29.16;38.34;96318.53;10261775;28;20034;-52
2023/07/26 04:21:43;;;;;;;21.10;7.93;;;;;;;29.18;38.59;96314.72;10261121;28;20113;-52
2023/07/26 04:26:42;;;;;;;20.00;7.97;;;;;;;29.25;38.46;96330.94;10261977;28;20042;-52
2023/07/26 04:31:41;;;;;;;15.15;7.85;;;;;;;29.26;38.32;96332.69;10257014;28;20141;-53
2023/07/26 04:36:41;;;;;;;20.30;7.80;;;;;;;29.21;38.58;96309.06;10256133;28;20042;-52
2023/07/26 04:41:40;;;;;;;15.50;7.68;;;;;;;29.41;38.16;96328.44;10260983;28;20563;-51
2023/07/26 04:46:39;;;;;;;21.92;9.88;;;;;;;29.48;37.88;96323.34;10253485;28;20613;-50
2023/07/26 04:51:38;;;;;;;16.98;8.60;;;;;;;29.56;37.37;96325.25;10259163;28;20034;-50
2023/07/26 04:56:37;;;;;;;23.20;7.88;;;;;;;29.71;36.80;96329.03;10247467;28;20475;-49
2023/07/26 05:01:35;;;;;;;19.48;8.25;;;;;;;29.84;36.35;96329.50;10256602;28;20298;-52
2023/07/26 05:06:36;;;;;;;16.35;8.00;;;;;;;29.98;36.36;96340.63;10250005;28;20843;-52
2023/07/26 05:11:35;;;;;;;18.40;8.73;;;;;;;30.09;36.28;96343.88;10244397;28;20105;-51
2023/07/26 05:16:34;;;;;;;21.27;8.55;;;;;;;30.15;35.63;96329.03;10251529;28;20121;-53
2023/07/26 05:21:33;;;;;;;18.80;7.15;;;;;;;30.35;35.99;96332.28;10250871;28;20044;-51
2023/07/26 05:26:32;;;;;;;21.85;8.25;;;;;;;30.49;35.74;96325.53;10256353;28;20107;-49
2023/07/26 05:31:31;;;;;;;17.90;8.93;;;;;;;30.64;35.06;96315.88;10255813;28;20050;-49
2023/07/26 05:36:30;;;;;;;21.42;8.50;;;;;;;30.81;33.81;96311.41;10253882;28;20033;-51
2023/07/26 05:41:31;;;;;;;21.50;7.68;;;;;;;31.10;33.53;96326.25;10245024;28;20128;-52
2023/07/26 05:46:30;;;;;;;25.70;9.05;;;;;;;31.27;33.19;96325.28;10258043;28;20081;-51
2023/07/26 05:51:29;;;;;;;19.88;8.55;;;;;;;31.48;32.41;96330.16;10253962;28;20062;-52
2023/07/26 05:56:28;;;;;;;18.88;8.13;;;;;;;31.63;31.00;96332.19;10253829;28;20125;-52
2023/07/26 06:01:27;;;;;;;20.17;7.90;;;;;;;31.88;30.45;96331.16;10253897;28;20030;-51
2023/07/26 06:06:26;;;;;;;22.20;7.80;;;;;;;32.10;30.04;96321.59;10247610;28;20065;-52
2023/07/26 06:11:25;;;;;;;22.80;8.00;;;;;;;32.35;30.77;96325.03;10243895;28;20411;-49
2023/07/26 06:16:24;;;;;;;17.73;7.95;;;;;;;32.41;29.07;96320.81;10248298;28;20038;-50
2023/07/26 06:21:23;;;;;;;21.98;8.43;;;;;;;32.61;29.95;96315.91;10243134;28;20034;-50
2023/07/26 06:26:22;;;;;;;22.67;8.38;;;;;;;32.77;29.98;96318.53;10250342;28;20429;-52
2023/07/26 06:31:20;;;;;;;24.90;10.10;;;;;;;32.98;29.73;96311.69;10250939;28;20362;-50
2023/07/26 06:36:19;;;;;;;18.98;9.45;;;;;;;33.13;28.99;96320.69;10243027;28;20141;-50
2023/07/26 06:41:18;;;;;;;18.27;8.50;;;;;;;33.23;28.90;96325.81;10242287;28;20048;-52
2023/07/26 06:46:17;;;;;;;19.63;8.40;;;;;;;33.42;29.74;96322.69;10243981;28;20053;-50
2023/07/26 06:51:16;;;;;;;22.35;8.88;;;;;;;33.44;29.79;96319.78;10243306;28;20109;-51
2023/07/26 06:56:15;;;;;;;18.70;8.68;;;;;;;33.55;29.92;96323.91;10253906;28;20041;-52
2023/07/26 07:01:17;;;;;;;22.45;8.55;;;;;;;33.63;30.02;96322.03;10250428;28;20137;-52
2023/07/26 07:06:16;;;;;;;17.63;7.88;;;;;;;33.78;29.60;96322.06;10250614;28;20121;-50
2023/07/26 07:11:14;;;;;;;18.67;8.18;;;;;;;33.88;29.71;96313.72;10250047;28;20384;-52
2023/07/26 07:16:13;;;;;;;21.65;7.88;;;;;;;33.98;28.97;96308.94;10252065;28;20567;-52
2023/07/26 07:21:12;;;;;;;17.35;8.18;;;;;;;34.08;29.59;96308.66;10245473;28;20411;-51
2023/07/26 07:26:11;;;;;;;20.00;8.20;;;;;;;34.14;28.31;96315.19;10253978;28;20411;-51
2023/07/26 07:31:10;;;;;;;41.55;9.70;;;;;;;34.26;29.30;96308.31;10253172;28;20050;-52
2023/07/26 07:36:12;;;;;;;21.30;8.45;;;;;;;34.37;29.60;96312.41;10250018;28;20050;-52
2023/07/26 07:41:12;;;;;;;16.10;7.85;;;;;;;34.47;29.17;96291.41;10252957;28;20136;-52
2023/07/26 07:46:11;;;;;;;17.98;8.57;;;;;;;34.46;28.23;96309.41;10252849;28;20133;-52
2023/07/26 07:51:10;;;;;;;22.10;8.60;;;;;;;34.11;28.42;96319.09;10257195;28;20116;-51
2023/07/26 07:56:09;;;;;;;21.27;8.18;;;;;;;34.19;28.21;96326.22;10250623;28;20109;-51
2023/07/26 08:01:10;;;;;;;23.95;9.23;;;;;;;34.25;27.46;96312.03;10256075;28;20046;-52
2023/07/26 08:06:11;;;;;;;22.17;7.93;;;;;;;34.42;27.64;96310.81;10254111;28;20125;-51
2023/07/26 08:11:11;;;;;;;22.38;8.18;;;;;;;34.48;26.43;96314.63;10253433;28;20488;-52
2023/07/26 08:16:10;;;;;;;15.88;9.15;;;;;;;34.72;26.94;96313.50;10253950;28;20575;-50
2023/07/26 08:21:12;;;;;;;21.65;8.70;;;;;;;34.58;26.22;96298.16;10255429;28;20536;-49
2023/07/26 08:26:11;;;;;;;29.90;8.43;;;;;;;34.76;24.29;96305.91;10254510;28;20061;-52
2023/07/26 08:31:11;;;;;;;21.55;9.30;;;;;;;35.00;25.01;96299.31;10254186;28;20042;-51
2023/07/26 08:36:10;;;;;;;22.40;7.78;;;;;;;35.06;24.67;96293.19;10253583;28;20073;-52
2023/07/26 08:41:09;;;;;;;20.52;8.38;;;;;;;35.33;24.63;96287.03;10256604;28;20031;-51
2023/07/26 08:46:09;;;;;;;31.75;10.95;;;;;;;35.54;23.57;96288.88;10256869;28;20142;-51
2023/07/26 08:51:08;;;;;;;20.90;9.07;;;;;;;35.49;23.35;96271.63;10255340;28;20074;-50
2023/07/26 08:56:08;;;;;;;24.50;10.88;;;;;;;35.64;22.96;96293.97;10259094;28;20487;-52
2023/07/26 09:01:08;;;;;;;23.13;7.97;;;;;;;35.72;23.94;96279.53;10256884;28;20117;-52
2023/07/26 09:06:08;;;;;;;19.98;7.22;;;;;;;35.54;21.33;96266.47;10253194;28;20137;-49
2023/07/26 09:11:27;;;;;;;36.63;8.60;;;;;;;35.84;23.66;96279.81;10256867;28;20238;-51
2023/07/26 09:16:31;;;;;;;33.85;8.27;;;;;;;35.75;22.78;96250.25;10252510;28;20121;-52
2023/07/26 09:21:32;;;;;;;21.95;7.47;;;;;;;35.79;22.20;96241.78;10253447;28;20134;-52
2023/07/26 09:26:39;;;;;;;17.35;7.07;;;;;;;36.22;21.04;96288.38;10247571;28;20113;-52
2023/07/26 09:31:42;;;;;;;20.63;7.47;;;;;;;36.15;20.56;96290.22;10240226;28;20133;-52
2023/07/26 09:36:51;;;;;;;15.52;6.65;;;;;;;36.25;21.10;96295.25;10253781;28;20073;-52
2023/07/26 09:42:01;;;;;;;20.23;6.53;;;;;;;35.72;20.54;96191.28;10250274;28;20120;-53
2023/07/26 09:47:00;;;;;;;21.58;6.82;;;;;;;36.40;20.55;96285.16;10238540;28;20121;-52
2023/07/26 09:52:01;;;;;;;14.63;6.43;;;;;;;36.45;19.82;96279.16;10243485;28;20544;-53
2023/07/26 09:57:01;;;;;;;21.88;6.68;;;;;;;36.47;19.19;96285.22;10259951;28;20566;-54
2023/07/26 10:02:04;;;;;;;16.60;6.45;;;;;;;36.25;19.49;96238.53;10251756;28;20125;-52
2023/07/26 10:07:07;;;;;;;17.52;6.95;;;;;;;36.65;19.11;96274.72;10254283;28;20487;-53
2023/07/26 10:12:08;;;;;;;18.13;6.88;;;;;;;36.66;20.08;96275.53;10255132;28;20070;-53
2023/07/26 10:17:07;;;;;;;19.50;6.65;;;;;;;36.71;19.80;96276.59;10256983;28;20073;-52
2023/07/26 10:22:08;;;;;;;20.15;7.80;;;;;;;36.69;19.69;96245.41;10255082;28;20117;-52
2023/07/26 10:27:08;;;;;;;17.85;6.45;;;;;;;36.78;20.08;96260.41;10251173;28;20478;-52
2023/07/26 10:32:07;;;;;;;23.10;7.38;;;;;;;36.70;19.54;96256.03;10254359;28;20161;-52
2023/07/26 10:37:19;;;;;;;17.35;7.15;;;;;;;36.64;20.77;96264.94;10249686;28;20464;-52
2023/07/26 10:42:29;;;;;;;18.95;7.13;;;;;;;36.82;20.01;96258.13;10251061;28;20563;-51
2023/07/26 10:47:29;;;;;;;22.05;6.93;;;;;;;36.49;20.04;96253.41;10252585;28;20523;-52
2023/07/26 10:52:37;;;;;;;18.98;7.00;;;;;;;36.63;19.92;96248.91;10253470;28;20125;-52
2023/07/26 10:57:47;;;;;;;19.85;7.10;;;;;;;36.93;20.65;96257.53;10249097;28;20148;-52
2023/07/26 11:02:59;;;;;;;19.38;6.72;;;;;;;37.08;20.31;96252.00;10253684;28;20116;-52
2023/07/26 11:08:00;;;;;;;16.70;6.65;;;;;;;37.28;20.46;96257.41;10249365;28;20086;-53
2023/07/26 11:13:13;;;;;;;14.88;6.82;;;;;;;37.71;20.85;96257.03;10247875;28;20116;-52
2023/07/26 11:18:14;;;;;;;17.80;6.25;;;;;;;37.55;19.97;96213.13;10244252;28;20221;-55
2023/07/26 11:23:29;;;;;;;13.70;6.30;;;;;;;37.61;19.85;96219.53;10246928;28;20129;-51
2023/07/26 11:28:32;;;;;;;16.45;6.20;;;;;;;37.80;20.04;96245.78;10247634;28;20145;-51
2023/07/26 11:33:33;;;;;;;14.82;6.65;;;;;;;38.12;21.01;96242.41;10247850;28;20153;-51
2023/07/26 11:38:32;;;;;;;19.08;6.70;;;;;;;38.27;21.06;96218.63;10250980;28;20129;-51
2023/07/26 11:43:31;;;;;;;16.00;6.70;;;;;;;38.39;20.45;96227.78;10240288;28;20053;-53
2023/07/26 11:48:30;;;;;;;14.60;6.32;;;;;;;38.63;20.52;96204.50;10243641;28;20136;-50
2023/07/26 11:53:32;;;;;;;19.70;7.72;;;;;;;38.84;20.14;96218.81;10243886;28;20049;-51
2023/07/26 11:58:35;;;;;;;18.23;6.28;;;;;;;38.60;19.24;96217.69;10246855;28;20129;-53
2023/07/26 12:03:35;;;;;;;23.63;7.15;;;;;;;38.50;19.64;96223.56;10243259;28;20591;-53
2023/07/26 12:08:35;;;;;;;19.27;6.25;;;;;;;38.66;20.06;96201.38;10245346;28;20125;-53
2023/07/26 12:13:35;;;;;;;17.27;6.45;;;;;;;38.73;18.55;96200.50;10257131;28;20133;-53
2023/07/26 12:18:34;;;;;;;19.17;6.90;;;;;;;38.96;19.43;96194.53;10253311;28;20591;-51
2023/07/26 12:23:58;;;;;;;21.63;6.63;;;;;;;38.95;19.00;96210.00;10256928;28;20465;-51
2023/07/26 12:28:59;;;;;;;17.67;6.15;;;;;;;38.68;17.66;96207.38;10255929;28;20066;-52
2023/07/26 12:34:02;;;;;;;14.18;6.90;;;;;;;38.50;18.13;96206.44;10254203;28;20116;-52
2023/07/26 12:39:01;;;;;;;14.75;6.32;;;;;;;38.63;18.93;96204.50;10257656;28;20073;-52
2023/07/26 12:44:01;;;;;;;14.15;5.65;;;;;;;38.01;18.63;96163.50;10255533;28;20042;-52
2023/07/26 12:49:01;;;;;;;18.98;6.60;;;;;;;37.99;18.73;96198.06;10256636;28;20085;-52
2023/07/26 12:54:02;;;;;;;13.48;6.15;;;;;;;38.07;18.97;96186.16;10257385;28;20472;-51
2023/07/26 12:59:01;;;;;;;16.20;6.05;;;;;;;37.99;19.20;96181.00;10259021;28;20521;-51
2023/07/26 13:04:00;;;;;;;16.02;6.15;;;;;;;38.08;18.21;96166.19;10241776;28;20053;-52
2023/07/26 13:08:59;;;;;;;14.55;6.32;;;;;;;38.29;18.46;96169.63;10249987;28;20416;-52
2023/07/26 13:13:58;;;;;;;12.18;6.03;;;;;;;38.20;18.66;96174.47;10252447;28;21058;-52
2023/07/26 13:18:59;;;;;;;17.80;6.70;;;;;;;38.37;18.89;96166.69;10251433;28;20560;-52
2023/07/26 13:23:58;;;;;;;19.77;8.45;;;;;;;38.88;19.51;96160.38;10252873;28;20114;-53
2023/07/26 13:28:57;;;;;;;14.80;6.07;;;;;;;39.14;18.47;96169.38;10250595;28;20088;-53
2023/07/26 13:33:56;;;;;;;16.88;7.03;;;;;;;38.97;19.15;96169.06;10239850;28;20043;-51
2023/07/26 13:38:55;;;;;;;17.95;7.22;;;;;;;39.38;19.40;96155.00;10237958;28;20034;-51
2023/07/26 13:43:54;;;;;;;15.00;6.07;;;;;;;39.76;18.17;96167.59;10239451;28;20057;-52
2023/07/26 13:48:52;;;;;;;16.30;6.28;;;;;;;39.84;18.69;96164.59;10247003;28;20116;-53
2023/07/26 13:53:51;;;;;;;17.77;6.55;;;;;;;39.95;19.07;96170.31;10250652;28;20052;-54
2023/07/26 13:58:50;;;;;;;19.23;6.50;;;;;;;39.75;19.26;96163.22;10256760;28;20124;-53
2023/07/26 14:03:49;;;;;;;15.80;6.45;;;;;;;40.04;19.15;96177.13;10252836;28;20040;-52
2023/07/26 14:08:48;;;;;;;18.98;6.03;;;;;;;40.23;17.99;96170.63;10246079;28;20414;-52
2023/07/26 14:13:48;;;;;;;14.13;5.88;;;;;;;40.03;18.66;96172.75;10251971;28;20120;-51
2023/07/26 14:18:47;;;;;;;13.35;6.25;;;;;;;39.75;18.24;96170.56;10250039;28;20078;-53
2023/07/26 14:23:46;;;;;;;14.60;5.57;;;;;;;39.46;18.53;96168.28;10251283;28;20122;-52
2023/07/26 14:28:45;;;;;;;16.35;6.97;;;;;;;39.06;21.40;96187.59;10248433;28;20571;-54
2023/07/26 14:33:44;;;;;;;22.20;10.68;;;;;;;36.27;32.18;96187.84;10253644;28;20046;-52
2023/07/26 14:38:43;;;;;;;22.40;11.25;;;;;;;35.39;33.42;96195.59;10249313;28;20038;-52
2023/07/26 14:43:42;;;;;;;20.27;11.65;;;;;;;34.52;35.97;96192.03;10248703;28;20047;-53
2023/07/26 14:48:41;;;;;;;23.08;12.73;;;;;;;33.79;37.18;96199.13;10246981;28;20088;-52
2023/07/26 14:53:40;;;;;;;25.40;12.63;;;;;;;33.53;37.99;96218.38;10249938;28;20062;-50
2023/07/26 14:58:39;;;;;;;23.98;12.70;;;;;;;32.82;40.02;96248.97;10249184;28;20092;-52
2023/07/26 15:03:38;;;;;;;21.45;11.90;;;;;;;32.08;41.27;96253.00;10248426;28;20031;-52
2023/07/26 15:08:38;;;;;;;20.30;14.25;;;;;;;31.75;42.01;96279.88;10248706;28;20032;-50
2023/07/26 15:13:37;;;;;;;27.63;15.27;;;;;;;31.25;43.28;96294.28;10250735;28;20126;-51
2023/07/26 15:18:36;;;;;;;26.20;15.27;;;;;;;30.79;44.25;96307.22;10241557;28;20048;-52
2023/07/26 15:23:35;;;;;;;17.63;11.52;;;;;;;30.60;44.67;96360.03;10244375;28;20154;-49
2023/07/26 15:28:35;;;;;;;20.95;11.57;;;;;;;30.16;45.11;96400.25;10243604;28;20129;-51
2023/07/26 15:33:33;;;;;;;23.85;12.32;;;;;;;29.58;45.54;96409.66;10241824;28;20121;-51
2023/07/26 15:38:32;;;;;;;21.45;12.10;;;;;;;29.10;45.94;96450.84;10243702;28;20455;-49
2023/07/26 15:43:31;;;;;;;18.08;10.88;;;;;;;28.05;47.58;96484.66;10242874;28;20508;-49
2023/07/26 15:48:30;;;;;;;19.38;13.00;;;;;;;27.71;48.93;96470.09;10253550;28;20145;-50
2023/07/26 15:53:29;;;;;;;22.75;12.25;;;;;;;27.13;50.28;96502.78;10245452;28;20046;-50
2023/07/26 15:58:28;;;;;;;23.98;15.55;;;;;;;26.31;54.05;96548.81;10251936;28;20206;-51
2023/07/26 16:03:27;;;;;;;23.55;16.45;;;;;;;25.71;56.30;96548.41;10250225;28;20066;-51
2023/07/26 16:08:27;;;;;;;24.65;16.23;;;;;;;25.41;58.19;96557.00;10252338;28;20037;-50
2023/07/26 16:13:26;;;;;;;24.95;17.25;;;;;;;24.97;60.89;96566.69;10252987;28;20558;-49
2023/07/26 16:18:26;;;;;;;23.48;17.40;;;;;;;25.37;59.69;96559.06;10250468;28;20498;-53
2023/07/26 16:23:25;;;;;;;43.60;22.98;;;;;;;24.72;77.87;96584.47;10250574;28;20148;-50
2023/07/26 16:28:24;;;;;;;32.95;22.52;;;;;;;23.23;81.46;96604.16;10251001;28;20022;-52
2023/07/26 16:33:23;;;;;;;35.90;23.98;;;;;;;22.62;87.43;96600.41;10249165;28;20054;-48
2023/07/26 16:38:22;;;;;;;34.35;21.92;;;;;;;22.59;90.71;96603.28;10250673;28;20064;-51
2023/07/26 16:43:21;;;;;;;41.47;24.63;;;;;;;22.64;91.49;96632.06;10249849;28;20134;-54
2023/07/26 16:48:20;;;;;;;29.90;21.73;;;;;;;22.75;92.03;96635.69;10250818;28;20038;-51
2023/07/26 16:53:19;;;;;;;31.20;20.90;;;;;;;22.79;92.58;96657.50;10248324;28;20026;-53
2023/07/26 16:58:18;;;;;;;28.25;21.15;;;;;;;22.74;92.26;96676.34;10247347;28;20508;-52
2023/07/26 17:03:19;;;;;;;35.03;22.65;;;;;;;22.66;91.93;96677.75;10249842;28;20401;-51
2023/07/26 17:08:18;;;;;;;27.80;18.42;;;;;;;22.49;90.83;96710.63;10242721;28;20137;-50
2023/07/26 17:13:17;;;;;;;28.25;16.80;;;;;;;22.31;90.50;96663.28;10263280;28;20080;-51
2023/07/26 17:18:16;;;;;;;27.02;15.95;;;;;;;22.07;86.84;96715.94;10284457;28;20057;-49
2023/07/26 17:23:15;;;;;;;20.65;15.18;;;;;;;21.83;87.20;96747.38;10282549;28;20029;-52
2023/07/26 17:28:14;;;;;;;23.63;16.80;;;;;;;21.89;89.39;96757.53;10282790;28;20036;-52
2023/07/26 17:33:13;;;;;;;23.13;16.50;;;;;;;21.93;90.33;96806.59;10283011;28;20048;-52
2023/07/26 17:38:12;;;;;;;26.08;18.90;;;;;;;21.88;93.06;96726.78;10257798;28;20599;-51
2023/07/26 17:43:11;;;;;;;30.35;19.75;;;;;;;21.73;93.01;96783.19;10284871;28;20439;-51
2023/07/26 17:48:10;;;;;;;32.80;20.63;;;;;;;21.70;94.38;96841.47;10284590;28;20084;-52
2023/07/26 17:53:09;;;;;;;32.85;20.80;;;;;;;21.79;95.61;96862.06;10284930;28;20439;-53
2023/07/26 17:58:08;;;;;;;36.03;22.00;;;;;;;21.88;95.66;96845.66;10287501;28;20084;-53
2023/07/26 18:03:07;;;;;;;27.33;18.90;;;;;;;21.62;94.81;96820.81;10286193;28;20080;-52
2023/07/26 18:08:06;;;;;;;22.58;14.40;;;;;;;20.89;92.85;96868.16;10287350;28;20034;-52
2023/07/26 18:13:06;;;;;;;21.58;14.70;;;;;;;20.47;94.44;96891.56;10287013;28;20100;-52
2023/07/26 18:18:05;;;;;;;22.13;15.63;;;;;;;20.38;96.96;96912.28;10286270;28;20100;-50
2023/07/26 18:23:04;;;;;;;25.42;15.00;;;;;;;20.38;97.26;96912.28;10280303;28;20529;-51
2023/07/26 18:28:04;;;;;;;22.60;14.40;;;;;;;20.32;97.27;96917.84;10283674;28;20037;-51
2023/07/26 18:33:03;;;;;;;19.80;13.80;;;;;;;20.35;96.51;96929.06;10283246;28;20073;-49
2023/07/26 18:38:02;;;;;;;20.75;14.65;;;;;;;20.35;96.70;96928.22;10283559;28;20171;-51
2023/07/26 18:43:01;;;;;;;19.30;13.27;;;;;;;20.40;96.66;96940.28;10282669;28;20038;-49
2023/07/26 18:48:00;;;;;;;25.48;14.50;;;;;;;20.46;96.42;96939.06;10283918;28;20026;-50
2023/07/26 18:52:59;;;;;;;19.50;11.90;;;;;;;20.59;96.14;96963.84;10283129;28;20133;-52
2023/07/26 18:57:58;;;;;;;15.80;11.57;;;;;;;20.70;94.57;96976.44;10283374;28;20036;-52
2023/07/26 19:02:57;;;;;;;16.45;11.15;;;;;;;20.63;94.00;96944.31;10283432;28;20322;-52
2023/07/26 19:07:56;;;;;;;15.20;10.85;;;;;;;20.83;93.56;96972.19;10282536;28;20121;-52
2023/07/26 19:12:55;;;;;;;16.98;11.98;;;;;;;20.91;93.51;96963.84;10278355;28;20058;-51
2023/07/26 19:17:54;;;;;;;14.52;9.60;;;;;;;20.88;91.40;96954.34;10292034;28;20030;-52
2023/07/26 19:22:54;;;;;;;18.23;11.52;;;;;;;20.92;91.49;96973.50;10290071;28;20030;-53
2023/07/26 19:27:53;;;;;;;24.38;12.38;;;;;;;20.97;91.53;96958.25;10291684;28;20192;-51
2023/07/26 19:32:52;;;;;;;15.65;11.25;;;;;;;20.92;90.73;96958.50;10290302;28;20080;-52
2023/07/26 19:37:51;;;;;;;15.25;11.27;;;;;;;20.97;89.59;96952.13;10291065;28;20128;-48
2023/07/26 19:42:50;;;;;;;16.65;11.55;;;;;;;20.89;89.79;96966.59;10288991;28;20117;-52
2023/07/26 19:47:49;;;;;;;16.23;11.57;;;;;;;20.84;90.37;96984.44;10290461;28;20041;-52
2023/07/26 19:52:48;;;;;;;18.10;12.60;;;;;;;20.85;90.02;96980.03;10289110;28;20360;-51
2023/07/26 19:57:48;;;;;;;18.23;12.40;;;;;;;20.87;90.75;96978.16;10290693;28;20108;-51
2023/07/26 20:02:47;;;;;;;16.13;12.35;;;;;;;20.91;90.31;96971.78;10289355;28;20132;-52
2023/07/26 20:07:46;;;;;;;17.10;12.70;;;;;;;20.85;91.29;96965.06;10289416;28;20037;-51
2023/07/26 20:12:45;;;;;;;17.27;11.15;;;;;;;20.83;90.50;96961.66;10288446;28;20064;-51
2023/07/26 20:17:44;;;;;;;19.75;12.57;;;;;;;20.83;90.12;96966.94;10286243;28;20304;-50
2023/07/26 20:22:43;;;;;;;19.90;13.25;;;;;;;20.73;90.75;96949.91;10286812;28;20040;-50
2023/07/26 20:27:42;;;;;;;20.83;12.57;;;;;;;20.75;90.93;96957.72;10285040;28;20057;-51
2023/07/26 20:32:42;;;;;;;22.17;14.15;;;;;;;20.75;91.27;96952.44;10287864;28;20524;-51
2023/07/26 20:37:41;;;;;;;19.38;13.70;;;;;;;20.70;91.30;96956.22;10286626;28;20124;-49
2023/07/26 20:42:41;;;;;;;18.98;13.43;;;;;;;20.65;91.24;96962.66;10286288;28;20064;-51
2023/07/26 20:47:40;;;;;;;18.98;13.25;;;;;;;20.57;92.08;96964.88;10287567;28;20032;-49
2023/07/26 20:52:39;;;;;;;19.52;13.82;;;;;;;20.50;93.11;96985.44;10285958;28;20547;-52
2023/07/26 20:57:38;;;;;;;21.63;14.13;;;;;;;20.43;93.13;96981.41;10286265;28;20040;-52
2023/07/26 21:02:37;;;;;;;20.70;13.60;;;;;;;20.44;92.97;96985.75;10287302;28;20496;-51
2023/07/26 21:07:36;;;;;;;17.02;14.23;;;;;;;20.38;92.66;96989.53;10285797;28;20040;-51
2023/07/26 21:12:37;;;;;;;19.27;13.98;;;;;;;20.26;92.92;96991.03;10285942;28;20096;-51
2023/07/26 21:17:36;;;;;;;18.70;14.00;;;;;;;20.29;92.77;96982.94;10286722;28;20489;-50
2023/07/26 21:22:35;;;;;;;17.45;12.73;;;;;;;20.26;92.14;96991.03;10281229;28;20578;-52
2023/07/26 21:27:36;;;;;;;16.48;12.68;;;;;;;20.22;91.45;97002.66;10282607;28;20026;-50
2023/07/26 21:32:35;;;;;;;19.90;13.35;;;;;;;20.24;91.60;97003.44;10282952;28;20188;-51
2023/07/26 21:37:34;;;;;;;20.05;12.75;;;;;;;20.21;90.76;97000.09;10285904;28;20468;-52
2023/07/26 21:42:33;;;;;;;18.48;12.55;;;;;;;20.19;90.62;97007.22;10284469;28;20289;-51
2023/07/26 21:47:32;;;;;;;21.08;12.95;;;;;;;20.15;90.95;97005.69;10283577;28;20083;-50
2023/07/26 21:52:31;;;;;;;19.40;12.90;;;;;;;20.15;91.33;97001.25;10284708;28;20456;-52
2023/07/26 21:57:30;;;;;;;18.27;12.48;;;;;;;20.18;90.29;97003.72;10283728;28;20694;-53
2023/07/26 22:02:29;;;;;;;19.45;12.30;;;;;;;20.18;90.38;97003.72;10283235;28;20044;-50
2023/07/26 22:07:28;;;;;;;14.93;11.93;;;;;;;20.15;89.93;97016.22;10284860;28;20048;-50
2023/07/26 22:12:27;;;;;;;18.63;12.02;;;;;;;20.07;89.08;97014.84;10281758;28;20562;-51
2023/07/26 22:17:26;;;;;;;13.35;10.38;;;;;;;20.10;88.55;97007.72;10282800;28;20117;-52
2023/07/26 22:22:24;;;;;;;17.70;11.15;;;;;;;20.11;87.39;96993.59;10282164;28;20156;-52
2023/07/26 22:27:23;;;;;;;13.20;9.40;;;;;;;20.11;87.18;96993.59;10283570;28;20410;-51
2023/07/26 22:32:22;;;;;;;14.65;10.45;;;;;;;20.07;86.93;97000.78;10284665;28;20049;-52
2023/07/26 22:37:21;;;;;;;16.58;10.90;;;;;;;20.04;86.92;96993.06;10284204;28;20037;-49
2023/07/26 22:42:20;;;;;;;19.65;10.77;;;;;;;20.03;86.89;96986.09;10283949;28;20492;-49
2023/07/26 22:47:19;;;;;;;15.65;10.70;;;;;;;19.95;86.87;96978.56;10283999;28;20406;-52
2023/07/26 22:52:18;;;;;;;17.08;11.02;;;;;;;19.94;86.95;96997.94;10283257;28;20030;-52